createdAt,value
2017-06-12T00:02:23.441Z,90.30
2017-06-12T00:04:51.615Z,90.60
2017-06-12T00:07:19.825Z,90.60
2017-06-12T00:09:48.003Z,90.30
2017-06-12T00:12:16.202Z,90.20
2017-06-12T00:14:44.483Z,90.20
2017-06-12T00:17:12.677Z,90.20
2017-06-12T00:19:41.238Z,90.40
2017-06-12T00:22:09.518Z,90.50
2017-06-12T00:24:38.472Z,90.30
2017-06-12T00:27:06.670Z,90.30
2017-06-12T00:29:34.862Z,90.80
2017-06-12T00:32:03.309Z,90.70
2017-06-12T00:34:31.498Z,90.90
2017-06-12T00:36:59.854Z,90.80
2017-06-12T00:39:28.112Z,90.90
2017-06-12T00:41:56.306Z,90.90
2017-06-12T00:44:24.684Z,91.20
2017-06-12T00:46:52.863Z,91.10
2017-06-12T00:49:21.046Z,90.80
2017-06-12T00:51:49.307Z,91.00
2017-06-12T00:54:17.498Z,90.90
2017-06-12T00:56:45.961Z,91.10
2017-06-12T00:59:14.163Z,91.00
2017-06-12T01:01:43.103Z,90.60
2017-06-12T01:04:11.373Z,90.60
2017-06-12T01:06:39.564Z,91.10
2017-06-12T01:09:07.783Z,90.70
2017-06-12T01:11:36.731Z,90.00
2017-06-12T01:14:04.903Z,90.00
2017-06-12T01:16:33.097Z,90.50
2017-06-12T01:19:01.356Z,90.40
2017-06-12T01:21:29.747Z,90.10
2017-06-12T01:23:58.026Z,90.10
2017-06-12T01:26:26.255Z,90.40
2017-06-12T01:28:54.528Z,90.40
2017-06-12T01:31:22.694Z,90.50
2017-06-12T01:33:50.901Z,90.90
2017-06-12T01:36:19.103Z,91.00
2017-06-12T01:38:47.285Z,91.00
2017-06-12T01:41:16.325Z,91.10
2017-06-12T01:43:44.500Z,91.10
2017-06-12T01:46:12.665Z,91.10
2017-06-12T01:48:40.843Z,90.80
2017-06-12T01:51:09.080Z,90.90
2017-06-12T01:53:38.050Z,90.90
2017-06-12T01:56:06.251Z,90.90
2017-06-12T01:58:34.432Z,90.60
2017-06-12T02:01:02.666Z,90.80
2017-06-12T02:03:30.878Z,90.70
2017-06-12T02:05:59.307Z,90.90
2017-06-12T02:08:27.493Z,91.00
2017-06-12T02:10:55.699Z,91.00
2017-06-12T02:13:23.970Z,91.00
2017-06-12T02:15:52.931Z,91.30
2017-06-12T02:18:21.507Z,91.30
2017-06-12T02:20:49.723Z,91.00
2017-06-12T02:23:17.923Z,91.20
2017-06-12T02:25:46.144Z,91.20
2017-06-12T02:28:14.334Z,91.00
2017-06-12T02:30:42.893Z,91.30
2017-06-12T02:33:11.139Z,91.00
2017-06-12T02:35:39.311Z,91.10
2017-06-12T02:38:07.527Z,91.00
2017-06-12T02:40:36.490Z,91.10
2017-06-12T02:43:04.740Z,91.10
2017-06-12T02:45:32.917Z,90.90
2017-06-12T02:48:01.117Z,89.60
2017-06-12T02:50:29.334Z,89.70
2017-06-12T02:52:57.525Z,90.40
2017-06-12T02:55:26.029Z,89.60
2017-06-12T02:57:54.350Z,89.60
2017-06-12T03:00:22.557Z,89.40
2017-06-12T03:02:50.753Z,90.20
2017-06-12T03:05:18.935Z,90.20
2017-06-12T03:07:47.130Z,89.70
2017-06-12T03:10:33.073Z,90.20
2017-06-12T03:13:01.276Z,89.40
2017-06-12T03:15:29.487Z,90.00
2017-06-12T03:17:57.665Z,89.40
2017-06-12T03:20:26.026Z,87.20
2017-06-12T03:22:54.225Z,88.30
2017-06-12T03:25:22.578Z,86.20
2017-06-12T03:27:50.766Z,86.70
2017-06-12T03:30:18.943Z,88.70
2017-06-12T03:32:47.177Z,87.50
2017-06-12T03:35:15.344Z,88.60
2017-06-12T03:37:43.698Z,87.70
2017-06-12T03:40:11.885Z,88.90
2017-06-12T03:42:40.066Z,88.60
2017-06-12T03:45:08.259Z,88.80
2017-06-12T03:47:36.448Z,88.80
2017-06-12T03:50:05.716Z,87.70
2017-06-12T03:52:33.901Z,88.20
2017-06-12T03:55:02.127Z,88.10
2017-06-12T03:57:30.341Z,87.10
2017-06-12T03:59:58.558Z,85.90
2017-06-12T04:02:26.810Z,85.50
2017-06-12T04:04:54.991Z,85.60
2017-06-12T04:07:23.158Z,86.80
2017-06-12T04:09:51.369Z,86.80
2017-06-12T04:12:19.653Z,86.70
2017-06-12T04:14:48.394Z,86.70
2017-06-12T04:17:17.335Z,86.60
2017-06-12T04:19:45.540Z,86.70
2017-06-12T04:22:13.878Z,86.50
2017-06-12T04:24:42.122Z,86.80
2017-06-12T04:27:10.542Z,86.20
2017-06-12T04:29:39.470Z,86.20
2017-06-12T04:32:08.426Z,85.10
2017-06-12T04:34:36.662Z,85.10
2017-06-12T04:37:04.854Z,85.60
2017-06-12T04:39:33.571Z,84.00
2017-06-12T04:42:01.779Z,83.80
2017-06-12T04:44:29.954Z,83.30
2017-06-12T04:46:58.932Z,82.20
2017-06-12T04:49:27.131Z,81.40
2017-06-12T04:51:55.327Z,82.80
2017-06-12T04:54:23.516Z,81.10
2017-06-12T04:56:51.729Z,81.30
2017-06-12T04:59:20.278Z,81.10
2017-06-12T05:01:48.449Z,81.40
2017-06-12T05:04:16.626Z,81.50
2017-06-12T05:06:44.857Z,78.00
2017-06-12T05:09:13.031Z,79.00
2017-06-12T05:11:41.268Z,79.40
2017-06-12T05:14:09.444Z,78.70
2017-06-12T05:16:37.670Z,78.50
2017-06-12T05:19:05.917Z,79.60
2017-06-12T05:21:34.126Z,79.30
2017-06-12T05:24:02.387Z,77.50
2017-06-12T05:26:30.566Z,76.10
2017-06-12T05:28:58.755Z,77.00
2017-06-12T05:31:27.021Z,75.30
2017-06-12T05:33:55.197Z,75.20
2017-06-12T05:36:23.660Z,75.40
2017-06-12T05:38:51.835Z,75.50
2017-06-12T05:41:20.048Z,74.30
2017-06-12T05:43:48.301Z,73.40
2017-06-12T05:46:16.500Z,75.70
2017-06-12T05:48:44.935Z,73.70
2017-06-12T05:51:13.109Z,74.80
2017-06-12T05:53:41.286Z,73.50
2017-06-12T05:56:09.514Z,75.00
2017-06-12T05:58:37.700Z,72.20
2017-06-12T06:01:05.974Z,72.60
2017-06-12T06:03:34.225Z,70.10
2017-06-12T06:06:02.488Z,68.50
2017-06-12T06:08:30.791Z,64.50
2017-06-12T06:10:59.834Z,64.60
2017-06-12T06:13:28.160Z,64.60
2017-06-12T06:15:57.168Z,66.70
2017-06-12T06:18:25.357Z,66.60
2017-06-12T06:20:53.553Z,67.30
2017-06-12T06:23:21.872Z,68.20
2017-06-12T06:25:50.081Z,66.60
2017-06-12T06:28:18.359Z,63.90
2017-06-12T06:30:46.523Z,63.50
2017-06-12T06:33:14.740Z,62.10
2017-06-12T06:35:42.971Z,63.20
2017-06-12T06:38:11.725Z,62.40
2017-06-12T06:40:39.938Z,65.70
2017-06-12T06:43:08.203Z,64.50
2017-06-12T06:45:36.429Z,63.50
2017-06-12T06:48:04.620Z,64.70
2017-06-12T06:50:33.310Z,65.20
2017-06-12T06:53:01.523Z,66.60
2017-06-12T06:55:29.765Z,66.60
2017-06-12T06:57:58.027Z,62.90
2017-06-12T07:00:26.222Z,65.30
2017-06-12T07:02:55.686Z,66.20
2017-06-12T07:05:23.908Z,66.20
2017-06-12T07:07:52.102Z,64.90
2017-06-12T07:10:20.349Z,66.20
2017-06-12T07:12:49.360Z,66.40
2017-06-12T07:15:17.989Z,66.30
2017-06-12T07:17:46.178Z,65.80
2017-06-12T07:20:14.405Z,64.80
2017-06-12T07:22:42.620Z,64.60
2017-06-12T07:25:10.870Z,63.60
2017-06-12T07:27:39.367Z,63.90
2017-06-12T07:30:07.617Z,67.00
2017-06-12T07:32:35.812Z,65.10
2017-06-12T07:35:04.182Z,63.70
2017-06-12T07:37:32.452Z,63.40
2017-06-12T07:40:00.708Z,62.10
2017-06-12T07:42:29.097Z,60.70
2017-06-12T07:44:57.365Z,61.20
2017-06-12T07:47:25.582Z,63.30
2017-06-12T07:49:54.111Z,60.70
2017-06-12T07:52:22.269Z,60.40
2017-06-12T07:54:50.485Z,59.10
2017-06-12T07:57:19.000Z,59.10
2017-06-12T07:59:47.292Z,58.30
2017-06-12T08:02:15.471Z,58.40
2017-06-12T08:04:43.985Z,60.20
2017-06-12T08:07:12.281Z,58.20
2017-06-12T08:09:40.511Z,59.20
2017-06-12T08:12:09.350Z,58.10
2017-06-12T08:14:37.554Z,58.10
2017-06-12T08:17:05.776Z,58.20
2017-06-12T08:19:34.144Z,56.50
2017-06-12T08:22:02.313Z,57.00
2017-06-12T08:24:30.592Z,57.40
2017-06-12T08:26:59.009Z,56.70
2017-06-12T08:29:27.235Z,56.10
2017-06-12T08:31:55.488Z,53.40
2017-06-12T08:34:23.699Z,54.50
2017-06-12T08:36:51.922Z,54.60
2017-06-12T08:39:20.561Z,52.80
2017-06-12T08:41:48.781Z,52.20
2017-06-12T08:44:16.960Z,52.90
2017-06-12T08:46:45.971Z,54.70
2017-06-12T08:49:14.185Z,54.70
2017-06-12T08:51:42.767Z,54.40
2017-06-12T08:54:11.026Z,53.60
2017-06-12T08:56:39.210Z,53.20
2017-06-12T08:59:07.557Z,53.10
2017-06-12T09:01:35.779Z,54.70
2017-06-12T09:04:04.478Z,56.50
2017-06-12T09:06:32.691Z,54.50
2017-06-12T09:09:00.863Z,54.70
2017-06-12T09:11:29.135Z,51.80
2017-06-12T09:13:57.327Z,51.40
2017-06-12T09:16:25.839Z,52.40
2017-06-12T09:18:54.419Z,51.00
2017-06-12T09:21:22.668Z,49.80
2017-06-12T09:23:50.899Z,50.80
2017-06-12T09:26:19.111Z,51.90
2017-06-12T09:28:47.628Z,51.40
2017-06-12T09:31:15.887Z,51.50
2017-06-12T09:33:44.059Z,52.20
2017-06-12T09:36:12.566Z,52.50
2017-06-12T09:38:40.788Z,54.90
2017-06-12T09:41:09.054Z,52.50
2017-06-12T09:43:37.544Z,52.20
2017-06-12T09:46:05.755Z,53.00
2017-06-12T09:48:33.969Z,52.80
2017-06-12T09:51:02.343Z,53.70
2017-06-12T09:53:31.289Z,51.80
2017-06-12T09:55:59.536Z,50.90
2017-06-12T09:58:28.064Z,49.80
2017-06-12T10:00:56.374Z,49.40
2017-06-12T10:03:24.601Z,49.30
2017-06-12T10:05:53.115Z,50.00
2017-06-12T10:08:21.347Z,50.60
2017-06-12T10:10:49.583Z,51.00
2017-06-12T10:13:18.006Z,54.00
2017-06-12T10:15:46.213Z,58.60
2017-06-12T10:18:15.193Z,57.20
2017-06-12T10:20:43.676Z,57.20
2017-06-12T10:23:11.878Z,58.90
2017-06-12T10:25:40.099Z,57.30
2017-06-12T10:28:08.553Z,57.50
2017-06-12T10:30:36.751Z,56.20
2017-06-12T10:33:04.930Z,57.00
2017-06-12T10:35:33.434Z,56.30
2017-06-12T10:38:01.652Z,55.30
2017-06-12T10:40:29.853Z,54.90
2017-06-12T10:42:58.230Z,54.50
2017-06-12T10:45:26.454Z,54.80
2017-06-12T10:47:54.657Z,54.30
2017-06-12T10:50:23.156Z,55.30
2017-06-12T10:52:51.350Z,54.20
2017-06-12T10:55:19.551Z,53.00
2017-06-12T10:57:48.710Z,53.70
2017-06-12T11:00:16.901Z,53.70
2017-06-12T11:02:45.155Z,54.60
2017-06-12T11:05:13.629Z,55.10
2017-06-12T11:07:41.842Z,55.70
2017-06-12T11:10:10.047Z,56.10
2017-06-12T11:12:38.594Z,58.00
2017-06-12T11:15:07.553Z,57.90
2017-06-12T11:17:35.733Z,57.90
2017-06-12T11:20:04.204Z,57.10
2017-06-12T11:22:37.792Z,59.80
2017-06-12T11:25:06.147Z,60.50
2017-06-12T11:27:34.432Z,59.70
2017-06-12T11:30:02.605Z,60.20
2017-06-12T11:32:31.134Z,61.30
2017-06-12T11:34:59.354Z,61.10
2017-06-12T11:37:27.541Z,59.90
2017-06-12T11:39:55.971Z,58.60
2017-06-12T11:42:24.169Z,57.70
2017-06-12T11:44:52.356Z,56.30
2017-06-12T11:47:20.873Z,55.90
2017-06-12T11:49:49.075Z,56.90
2017-06-12T11:52:17.258Z,57.20
2017-06-12T11:54:45.637Z,57.10
2017-06-12T11:57:13.971Z,56.80
2017-06-12T11:59:42.157Z,55.90
2017-06-12T12:02:10.595Z,55.70
2017-06-12T12:04:38.908Z,54.50
2017-06-12T12:07:07.101Z,55.40
2017-06-12T12:09:36.306Z,56.70
2017-06-12T12:12:04.530Z,56.50
2017-06-12T12:14:32.724Z,55.40
2017-06-12T12:17:01.135Z,54.60
2017-06-12T12:19:29.333Z,53.50
2017-06-12T12:21:57.542Z,54.40
2017-06-12T12:24:26.764Z,54.40
2017-06-12T12:26:54.974Z,54.30
2017-06-12T12:29:23.146Z,53.20
2017-06-12T12:31:51.863Z,53.10
2017-06-12T12:34:20.054Z,52.20
2017-06-12T12:36:48.306Z,53.00
2017-06-12T12:39:16.754Z,51.50
2017-06-12T12:41:44.930Z,51.80
2017-06-12T12:44:13.116Z,51.20
2017-06-12T12:46:41.491Z,52.50
2017-06-12T12:49:09.695Z,53.40
2017-06-12T12:51:37.880Z,54.50
2017-06-12T12:54:06.462Z,54.90
2017-06-12T12:56:34.699Z,56.90
2017-06-12T12:59:02.945Z,56.40
2017-06-12T13:01:31.387Z,57.30
2017-06-12T13:03:59.606Z,60.30
2017-06-12T13:06:27.864Z,64.40
2017-06-12T13:08:57.019Z,65.90
2017-06-12T13:11:25.356Z,65.90
2017-06-12T13:13:53.578Z,66.50
2017-06-12T13:16:22.051Z,62.10
2017-06-12T13:18:50.301Z,62.20
2017-06-12T13:21:18.504Z,61.90
2017-06-12T13:23:46.979Z,65.10
2017-06-12T13:26:15.296Z,65.40
2017-06-12T13:28:43.616Z,67.30
2017-06-12T13:31:12.066Z,69.10
2017-06-12T13:33:40.311Z,71.40
2017-06-12T13:36:08.497Z,72.70
2017-06-12T13:38:36.955Z,73.40
2017-06-12T13:41:05.394Z,75.70
2017-06-12T13:43:34.077Z,76.80
2017-06-12T13:46:02.609Z,75.80
2017-06-12T13:48:30.819Z,75.60
2017-06-12T13:50:59.038Z,74.80
2017-06-12T13:53:27.538Z,71.50
2017-06-12T13:55:55.746Z,70.90
2017-06-12T13:58:23.916Z,70.50
2017-06-12T14:00:52.470Z,70.30
2017-06-12T14:03:20.658Z,69.30
2017-06-12T14:05:48.838Z,66.10
2017-06-12T14:08:17.219Z,66.10
2017-06-12T14:10:45.438Z,66.40
2017-06-12T14:13:13.633Z,67.10
2017-06-12T14:15:42.066Z,65.80
2017-06-12T14:18:10.337Z,66.30
2017-06-12T14:20:38.511Z,65.80
2017-06-12T14:23:06.916Z,62.60
2017-06-12T14:25:35.107Z,63.20
2017-06-12T14:28:03.326Z,61.00
2017-06-12T14:30:31.752Z,58.20
2017-06-12T14:32:59.940Z,59.60
2017-06-12T14:35:28.149Z,59.90
2017-06-12T14:37:56.667Z,60.30
2017-06-12T14:40:24.855Z,61.70
2017-06-12T14:42:53.135Z,60.60
2017-06-12T14:45:21.629Z,61.90
2017-06-12T14:47:49.837Z,60.20
2017-06-12T14:50:18.048Z,58.40
2017-06-12T14:52:46.641Z,59.70
2017-06-12T14:55:14.859Z,59.40
2017-06-12T14:57:43.042Z,61.50
2017-06-12T15:00:11.474Z,59.20
2017-06-12T15:02:39.696Z,60.00
2017-06-12T15:05:07.883Z,58.40
2017-06-12T15:07:36.371Z,59.20
2017-06-12T15:10:04.572Z,61.20
2017-06-12T15:12:32.799Z,60.20
2017-06-12T15:15:01.297Z,60.90
2017-06-12T15:17:29.478Z,60.60
2017-06-12T15:19:57.707Z,59.70
2017-06-12T15:22:26.118Z,60.00
2017-06-12T15:24:54.472Z,60.40
2017-06-12T15:27:22.663Z,60.60
2017-06-12T15:29:51.084Z,59.70
2017-06-12T15:32:19.290Z,60.10
2017-06-12T15:34:47.521Z,60.90
2017-06-12T15:37:17.812Z,61.10
2017-06-12T15:39:46.044Z,63.10
2017-06-12T15:42:15.022Z,66.60
2017-06-12T15:44:43.519Z,65.90
2017-06-12T15:47:12.480Z,65.60
2017-06-12T15:49:40.693Z,65.60
2017-06-12T15:52:09.150Z,67.00
2017-06-12T15:54:37.355Z,67.90
2017-06-12T15:57:05.527Z,70.40
2017-06-12T15:59:33.913Z,70.00
2017-06-12T16:02:02.138Z,71.00
2017-06-12T16:04:31.152Z,68.70
2017-06-12T16:07:00.461Z,70.40
2017-06-12T16:09:28.770Z,69.50
2017-06-12T16:11:56.961Z,66.40
2017-06-12T16:14:25.358Z,67.40
2017-06-12T16:16:53.606Z,66.90
2017-06-12T16:19:21.791Z,67.20
2017-06-12T16:21:50.320Z,66.90
2017-06-12T16:24:18.509Z,66.20
2017-06-12T16:26:46.712Z,66.20
2017-06-12T16:29:15.094Z,66.20
2017-06-12T16:31:43.302Z,66.20
2017-06-12T16:34:11.548Z,64.40
2017-06-12T16:36:39.918Z,65.90
2017-06-12T16:39:08.107Z,65.90
2017-06-12T16:41:36.298Z,65.70
2017-06-12T16:44:04.661Z,65.60
2017-06-12T16:46:32.843Z,66.30
2017-06-12T16:49:01.835Z,66.30
2017-06-12T16:51:35.860Z,65.60
2017-06-12T16:54:04.186Z,66.00
2017-06-12T16:56:32.413Z,65.10
2017-06-12T16:59:00.794Z,65.50
2017-06-12T17:01:29.829Z,65.50
2017-06-12T17:03:58.056Z,65.50
2017-06-12T17:06:27.358Z,63.40
2017-06-12T17:08:55.593Z,63.40
2017-06-12T17:11:23.804Z,64.00
2017-06-12T17:13:52.346Z,62.20
2017-06-12T17:16:20.542Z,62.20
2017-06-12T17:18:48.736Z,61.70
2017-06-12T17:21:17.150Z,61.80
2017-06-12T17:23:45.511Z,62.10
2017-06-12T17:26:13.733Z,62.30
2017-06-12T17:28:42.229Z,61.80
2017-06-12T17:31:10.530Z,62.40
2017-06-12T17:33:38.824Z,62.70
2017-06-12T17:36:07.263Z,63.80
2017-06-12T17:38:35.477Z,63.80
2017-06-12T17:41:03.685Z,62.00
2017-06-12T17:43:32.055Z,61.30
2017-06-12T17:46:00.277Z,62.20
2017-06-12T17:48:29.285Z,61.70
2017-06-12T17:50:57.769Z,61.50
2017-06-12T17:53:26.013Z,61.90
2017-06-12T17:55:54.206Z,62.70
2017-06-12T17:58:22.664Z,62.80
2017-06-12T18:00:50.859Z,62.00
2017-06-12T18:03:19.845Z,63.00
2017-06-12T18:05:49.111Z,63.50
2017-06-12T18:08:17.306Z,63.50
2017-06-12T18:10:45.537Z,63.40
2017-06-12T18:13:13.965Z,63.80
2017-06-12T18:15:42.231Z,64.40
2017-06-12T18:18:10.431Z,65.10
2017-06-12T18:20:38.802Z,65.30
2017-06-12T18:23:07.038Z,65.00
2017-06-12T18:25:35.218Z,65.00
2017-06-12T18:28:03.722Z,66.10
2017-06-12T18:30:32.483Z,65.90
2017-06-12T18:33:00.713Z,65.50
2017-06-12T18:35:29.131Z,66.50
2017-06-12T18:37:57.408Z,66.40
2017-06-12T18:40:25.666Z,67.60
2017-06-12T18:42:54.050Z,67.20
2017-06-12T18:45:22.238Z,69.50
2017-06-12T18:47:50.514Z,73.30
2017-06-12T18:50:19.069Z,73.50
2017-06-12T18:52:47.260Z,75.10
2017-06-12T18:55:15.554Z,75.80
2017-06-12T18:57:44.752Z,77.30
2017-06-12T19:00:12.950Z,77.30
2017-06-12T19:02:41.143Z,79.20
2017-06-12T19:05:09.685Z,79.10
2017-06-12T19:07:38.653Z,80.20
2017-06-12T19:10:06.878Z,79.60
2017-06-12T19:12:35.426Z,78.10
2017-06-12T19:15:03.655Z,78.90
2017-06-12T19:17:31.882Z,79.70
2017-06-12T19:20:00.356Z,79.80
2017-06-12T19:22:28.606Z,78.50
2017-06-12T19:24:56.834Z,77.10
2017-06-12T19:27:25.260Z,77.00
2017-06-12T19:29:53.505Z,77.50
2017-06-12T19:32:21.677Z,76.50
2017-06-12T19:34:50.089Z,77.20
2017-06-12T19:37:18.320Z,77.80
2017-06-12T19:39:46.516Z,78.40
2017-06-12T19:42:14.882Z,80.50
2017-06-12T19:44:43.116Z,82.40
2017-06-12T19:47:11.374Z,84.10
2017-06-12T19:49:39.912Z,83.30
2017-06-12T19:52:08.184Z,83.90
2017-06-12T19:54:36.572Z,83.50
2017-06-12T19:57:05.160Z,83.50
2017-06-12T19:59:33.388Z,86.10
2017-06-12T20:02:01.574Z,84.10
2017-06-12T20:04:31.071Z,84.60
2017-06-12T20:07:00.075Z,86.10
2017-06-12T20:09:28.458Z,85.90
2017-06-12T20:11:57.106Z,84.30
2017-06-12T20:14:25.680Z,85.30
2017-06-12T20:16:53.911Z,87.20
2017-06-12T20:19:22.536Z,86.20
2017-06-12T20:21:50.734Z,86.00
2017-06-12T20:24:18.954Z,84.50
2017-06-12T20:26:47.506Z,85.20
2017-06-12T20:29:15.724Z,84.40
2017-06-12T20:31:43.911Z,84.30
2017-06-12T20:34:12.502Z,85.30
2017-06-12T20:36:40.754Z,82.60
2017-06-12T20:39:08.948Z,82.50
2017-06-12T20:41:37.514Z,83.50
2017-06-12T20:44:05.744Z,84.50
2017-06-12T20:46:33.938Z,84.90
2017-06-12T20:49:02.558Z,83.50
2017-06-12T20:51:30.898Z,82.30
2017-06-12T20:53:59.127Z,84.10
2017-06-12T20:56:28.507Z,83.60
2017-06-12T20:58:56.745Z,82.90
2017-06-12T21:01:25.059Z,83.40
2017-06-12T21:03:53.595Z,81.90
2017-06-12T21:06:21.792Z,83.80
2017-06-12T21:08:49.990Z,85.20
2017-06-12T21:11:18.608Z,82.10
2017-06-12T21:13:46.814Z,81.40
2017-06-12T21:16:15.025Z,82.80
2017-06-12T21:18:43.551Z,82.70
2017-06-12T21:21:11.793Z,82.00
2017-06-12T21:23:40.763Z,82.90
2017-06-12T21:26:09.327Z,82.90
2017-06-12T21:28:37.520Z,81.90
2017-06-12T21:31:05.755Z,81.80
2017-06-12T21:33:34.369Z,82.70
2017-06-12T21:36:02.569Z,80.90
2017-06-12T21:38:30.798Z,83.30
2017-06-12T21:40:59.427Z,81.70
2017-06-12T21:43:27.619Z,81.40
2017-06-12T21:45:55.811Z,80.80
2017-06-12T21:48:24.357Z,80.90
2017-06-12T21:50:52.580Z,80.90
2017-06-12T21:53:20.884Z,80.90
2017-06-12T21:55:49.428Z,80.80
2017-06-12T21:58:17.615Z,80.90
2017-06-12T22:00:45.807Z,80.90
2017-06-12T22:03:14.398Z,80.90
2017-06-12T22:05:42.602Z,79.70
2017-06-12T22:08:10.837Z,79.70
2017-06-12T22:10:39.461Z,79.70
2017-06-12T22:13:08.411Z,79.60
2017-06-12T22:15:36.647Z,79.50
2017-06-12T22:18:05.243Z,79.90
2017-06-12T22:20:33.464Z,77.70
2017-06-12T22:23:01.677Z,79.10
2017-06-12T22:25:30.227Z,78.30
2017-06-12T22:27:59.213Z,79.10
2017-06-12T22:30:27.411Z,78.50
2017-06-12T22:32:55.955Z,78.70
2017-06-12T22:35:24.187Z,78.10
2017-06-12T22:37:52.515Z,77.70
2017-06-12T22:40:21.100Z,78.80
2017-06-12T22:42:49.313Z,78.80
2017-06-12T22:45:17.559Z,77.90
2017-06-12T22:47:46.181Z,77.50
2017-06-12T22:50:14.404Z,78.00
2017-06-12T22:52:42.739Z,78.00
2017-06-12T22:55:11.339Z,77.60
2017-06-12T22:57:39.618Z,77.50
2017-06-12T23:00:07.797Z,77.90
2017-06-12T23:02:36.321Z,77.70
2017-06-12T23:05:04.524Z,77.70
2017-06-12T23:07:32.718Z,77.80
2017-06-12T23:10:01.314Z,77.40
2017-06-12T23:12:29.567Z,77.90
2017-06-12T23:14:57.773Z,77.80
2017-06-12T23:17:26.462Z,77.90
2017-06-12T23:19:54.642Z,78.20
2017-06-12T23:22:22.908Z,78.00
2017-06-12T23:24:51.460Z,77.10
2017-06-12T23:27:25.247Z,77.80
2017-06-12T23:29:54.000Z,78.00
2017-06-12T23:32:22.968Z,77.20
2017-06-12T23:34:51.171Z,77.20
2017-06-12T23:37:19.846Z,77.20
2017-06-12T23:39:48.032Z,77.70
2017-06-12T23:42:16.237Z,77.30
2017-06-12T23:47:44.566Z,77.10
2017-06-12T23:50:12.773Z,77.00
2017-06-12T23:52:40.979Z,77.30
2017-06-12T23:55:09.508Z,77.40
2017-06-12T23:57:37.691Z,77.00
